Airfield :







YOU CAN JOIN US ON...

 
LOGIN :

Register | Disclaimer

   EN    FR    IT 

 









Legend :    VFR   Marginal VFR   IFR   Intensive IFR   Very Intensive IFR
Visi :
Ceiling :
>= 8 km
>= 3000ft
5 to 8 km
1000 to 3000 ft
1500m to 5 km
500 to 1000 ft
800 to 1500m
200 to 500 ft
< 800m
< 200 ft
Symbols :   Thunderstorms  Fog  Heavy snow  Heavy precipitations  Wind > 20 kt






- Airport Elevation : 9 ft
- IATA code : SJU


TJSJ - Luis Munoz Marin Int.

CURRENT METAR :
  • 231356Z 00000KT 10SM FEW034 FEW085 29/24 A3001 RMK AO2 SLP160 T02940239

EXPIRED METARs :
  • 231256Z 18004KT 10SM FEW030 FEW075 28/23 A3000 RMK AO2 SLP158 T02780233
  • 231156Z 16003KT 9SM FEW030 FEW075 27/23 A2999 RMK AO2 SLP155 HZ ALQDS 70064 T02670233 10267 20250 51014
  • 231056Z 16004KT 10SM FEW014 FEW037 SCT090 26/23 A2998 RMK AO2 SLP152 T02560233 $
  • 230956Z 12003KT 10SM FEW014 FEW037 SCT090 25/23 A2997 RMK AO2 SLP147 T02500233 $

TAF TJSJ
Valid from the 23 at 12:00 until the 24 at 12:00 UTC


231132Z 2312/2412 VRB05KT P6SM VCSH FEW030 SCT090
FM231400 07008KT P6SM VCSH FEW030 SCT050
FM231700 08010KT P6SM VCTS SCT025CB BKN050
FM232300 VRB05KT P6SM VCSH FEW030 SCT050
TJZS FIR / North America



MET'MAP, your aeronautical weather chart ! - Copyright ORBIFLY December 2007 - Disclaimer

ORBIFLY MET'MAP TEAM :

Programming & Development : Alexandra Zaïnal
Original concept : Baudouin d'Aumeries
Technical & hardware support : Manuel Goepfert
Assistance : Marc-Olivier Méhu




SOURCES & CREDITS :

   NOAA